Time,TemperatureF,DewpointF,PressureIn,WindDirection,WindDirectionDegrees,WindSpeedMPH,WindSpeedGustMPH,Humidity,HourlyPrecipIn,Conditions,Clouds,dailyrainin,SolarRadiationWatts/m^2,SoftwareType,DateUTC
2013-03-18 00:22:00,14.0,1.0,-100.00,NW,326,0.0,4.0,56,0.00,,,0.02,0.000000,,2013-03-18 08:22:00,
2013-03-18 00:32:00,14.0,1.0,-100.00,NW,326,0.0,4.0,56,0.00,,,0.02,0.000000,,2013-03-18 08:32:00,
2013-03-18 00:43:00,14.0,1.0,-100.00,NW,326,0.0,4.0,56,0.00,,,0.02,0.000000,,2013-03-18 08:43:00,
2013-03-18 00:52:00,14.0,1.0,-100.00,NW,326,0.0,4.0,56,0.00,,,0.02,0.000000,,2013-03-18 08:52:00,
2013-03-18 01:22:00,11.0,1.0,-100.00,North,352,0.0,1.0,63,0.00,,,0.02,0.000000,,2013-03-18 09:22:00,
2013-03-18 01:33:00,11.0,1.0,-100.00,North,352,0.0,1.0,63,0.00,,,0.02,0.000000,,2013-03-18 09:33:00,
2013-03-18 01:42:00,11.0,1.0,-100.00,North,352,0.0,1.0,63,0.00,,,0.02,0.000000,,2013-03-18 09:42:00,
2013-03-18 01:53:00,11.0,1.0,-100.00,North,352,0.0,1.0,63,0.00,,,0.02,0.000000,,2013-03-18 09:53:00,
2013-03-18 02:23:00,10.0,0.0,-100.00,NW,322,0.0,3.0,64,0.00,,,0.02,0.000000,,2013-03-18 10:23:00,
2013-03-18 02:33:00,10.0,0.0,-100.00,NW,322,0.0,3.0,64,0.00,,,0.02,0.000000,,2013-03-18 10:33:00,
2013-03-18 02:42:00,10.0,0.0,-100.00,NW,322,0.0,3.0,64,0.00,,,0.02,0.000000,,2013-03-18 10:42:00,
2013-03-18 02:52:00,10.0,0.0,-100.00,NW,322,0.0,3.0,64,0.00,,,0.02,0.000000,,2013-03-18 10:52:00,
2013-03-18 03:22:00,8.0,0.0,-100.00,NNW,343,0.0,3.0,68,0.00,,,0.02,0.000000,,2013-03-18 11:22:00,
2013-03-18 03:32:00,8.0,0.0,-100.00,NNW,343,0.0,3.0,68,0.00,,,0.02,0.000000,,2013-03-18 11:32:00,
2013-03-18 03:42:00,8.0,0.0,-100.00,NNW,343,0.0,3.0,68,0.00,,,0.02,0.000000,,2013-03-18 11:42:00,
2013-03-18 03:52:00,8.0,0.0,-100.00,NNW,343,0.0,3.0,68,0.00,,,0.02,0.000000,,2013-03-18 11:52:00,
2013-03-18 04:22:00,6.0,-1.0,-100.00,North,3,0.0,4.0,72,0.00,,,0.02,0.000000,,2013-03-18 12:22:00,
2013-03-18 04:32:00,6.0,-1.0,-100.00,North,3,0.0,4.0,72,0.00,,,0.02,0.000000,,2013-03-18 12:32:00,
2013-03-18 04:42:00,6.0,-1.0,-100.00,North,3,0.0,4.0,72,0.00,,,0.02,0.000000,,2013-03-18 12:42:00,
2013-03-18 04:51:00,6.0,-1.0,-100.00,North,3,0.0,4.0,72,0.00,,,0.02,0.000000,,2013-03-18 12:51:00,
2013-03-18 05:22:00,5.0,-1.0,-100.00,NE,40,0.0,3.0,75,0.00,,,0.02,0.000000,,2013-03-18 13:22:00,
2013-03-18 05:32:00,5.0,-1.0,-100.00,NE,40,0.0,3.0,75,0.00,,,0.02,0.000000,,2013-03-18 13:32:00,
2013-03-18 05:42:00,5.0,-1.0,-100.00,NE,40,0.0,3.0,75,0.00,,,0.02,0.000000,,2013-03-18 13:42:00,
2013-03-18 05:52:00,5.0,-1.0,-100.00,NE,40,0.0,3.0,75,0.00,,,0.02,0.000000,,2013-03-18 13:52:00,
2013-03-18 06:22:00,4.0,-1.0,-100.00,NNE,22,0.0,3.0,78,0.00,,,0.02,0.000000,,2013-03-18 14:22:00,
2013-03-18 06:32:00,4.0,-1.0,-100.00,NNE,22,0.0,3.0,78,0.00,,,0.02,0.000000,,2013-03-18 14:32:00,
2013-03-18 06:42:00,4.0,-1.0,-100.00,NNE,22,0.0,3.0,78,0.00,,,0.02,0.000000,,2013-03-18 14:42:00,
2013-03-18 06:52:00,4.0,-1.0,-100.00,NNE,22,0.0,3.0,78,0.00,,,0.02,0.000000,,2013-03-18 14:52:00,
2013-03-18 07:22:00,3.0,-2.0,-100.00,NE,43,0.0,2.0,80,0.00,,,0.02,0.000000,,2013-03-18 15:22:00,
2013-03-18 07:33:00,3.0,-2.0,-100.00,NE,43,0.0,2.0,80,0.00,,,0.02,0.000000,,2013-03-18 15:33:00,
2013-03-18 07:42:00,3.0,-2.0,-100.00,NE,43,0.0,2.0,80,0.00,,,0.02,0.000000,,2013-03-18 15:42:00,
2013-03-18 07:52:00,3.0,-2.0,-100.00,NE,43,0.0,2.0,80,0.00,,,0.02,0.000000,,2013-03-18 15:52:00,
2013-03-18 08:22:00,3.0,-2.0,-100.00,NNE,25,0.0,3.0,79,0.00,,,0.02,1.000000,,2013-03-18 16:22:00,
2013-03-18 08:32:00,3.0,-2.0,-100.00,NNE,25,0.0,3.0,79,0.00,,,0.02,1.000000,,2013-03-18 16:32:00,
2013-03-18 08:42:00,3.0,-2.0,-100.00,NNE,25,0.0,3.0,79,0.00,,,0.02,1.000000,,2013-03-18 16:42:00,
2013-03-18 08:52:00,3.0,-2.0,-100.00,NNE,25,0.0,3.0,79,0.00,,,0.02,1.000000,,2013-03-18 16:52:00,
2013-03-18 09:22:00,4.0,-1.0,-100.00,NNE,19,0.0,3.0,78,0.00,,,-99.99,9.000000,,2013-03-18 17:22:00,
2013-03-18 09:32:00,4.0,-1.0,-100.00,NNE,19,0.0,3.0,78,0.00,,,-99.99,9.000000,,2013-03-18 17:32:00,
2013-03-18 09:42:00,4.0,-1.0,-100.00,NNE,19,0.0,3.0,78,0.00,,,-99.99,9.000000,,2013-03-18 17:42:00,
2013-03-18 09:52:00,4.0,-1.0,-100.00,NNE,19,0.0,3.0,78,0.00,,,-99.99,9.000000,,2013-03-18 17:52:00,
2013-03-18 10:22:00,5.0,-1.0,-100.00,NNE,16,0.0,2.0,76,0.00,,,0.02,22.000000,,2013-03-18 18:22:00,
2013-03-18 10:32:00,5.0,-1.0,-100.00,NNE,16,0.0,2.0,76,0.00,,,0.02,22.000000,,2013-03-18 18:32:00,
2013-03-18 10:42:00,5.0,-1.0,-100.00,NNE,16,0.0,2.0,76,0.00,,,0.02,22.000000,,2013-03-18 18:42:00,
2013-03-18 10:52:00,5.0,-1.0,-100.00,NNE,16,0.0,2.0,76,0.00,,,0.02,22.000000,,2013-03-18 18:52:00,
2013-03-18 11:22:00,9.0,3.0,-100.00,NNE,21,0.0,0.0,76,-99.99,,,0.02,41.000000,,2013-03-18 19:22:00,
2013-03-18 11:32:00,9.0,3.0,-100.00,NNE,21,0.0,0.0,76,-99.99,,,0.02,41.000000,,2013-03-18 19:32:00,
2013-03-18 12:22:00,26.0,7.0,-100.00,North,353,3.0,6.0,43,-99.99,,,0.02,355.000000,,2013-03-18 20:22:00,
2013-03-18 12:32:00,26.0,7.0,-100.00,North,353,3.0,6.0,43,-99.99,,,0.02,355.000000,,2013-03-18 20:32:00,
2013-03-18 12:42:00,26.0,7.0,-100.00,North,353,3.0,6.0,43,-99.99,,,0.02,355.000000,,2013-03-18 20:42:00,
2013-03-18 12:51:00,26.0,7.0,-100.00,North,353,3.0,6.0,43,-99.99,,,0.02,355.000000,,2013-03-18 20:51:00,
2013-03-18 13:22:00,35.0,6.0,-100.00,WNW,299,1.0,5.0,29,0.00,,,0.02,498.000000,,2013-03-18 21:22:00,
2013-03-18 13:32:00,35.0,6.0,-100.00,WNW,299,1.0,5.0,29,0.00,,,0.02,498.000000,,2013-03-18 21:32:00,
2013-03-18 13:42:00,35.0,6.0,-100.00,WNW,299,1.0,5.0,29,0.00,,,0.02,498.000000,,2013-03-18 21:42:00,
2013-03-18 13:52:00,35.0,6.0,-100.00,WNW,299,1.0,5.0,29,0.00,,,0.02,498.000000,,2013-03-18 21:52:00,
2013-03-18 14:23:00,36.0,5.0,-100.00,SW,223,1.0,3.0,27,0.00,,,0.02,554.000000,,2013-03-18 22:23:00,
2013-03-18 14:33:00,36.0,5.0,-100.00,SW,223,1.0,3.0,27,0.00,,,0.02,554.000000,,2013-03-18 22:33:00,
2013-03-18 14:42:00,36.0,5.0,-100.00,SW,223,1.0,3.0,27,0.00,,,0.02,554.000000,,2013-03-18 22:42:00,
2013-03-18 14:52:00,36.0,5.0,-100.00,SW,223,1.0,3.0,27,0.00,,,0.02,554.000000,,2013-03-18 22:52:00,
2013-03-18 15:22:00,38.0,8.0,-100.00,West,271,2.0,9.0,28,0.00,,,0.01,550.000000,,2013-03-18 23:22:00,
2013-03-18 15:32:00,38.0,8.0,-100.00,West,271,2.0,9.0,28,0.00,,,0.01,550.000000,,2013-03-18 23:32:00,
2013-03-18 15:42:00,38.0,8.0,-100.00,West,271,2.0,9.0,28,0.00,,,0.01,550.000000,,2013-03-18 23:42:00,
2013-03-18 15:52:00,38.0,8.0,-100.00,West,271,2.0,9.0,28,0.00,,,0.01,550.000000,,2013-03-18 23:52:00,
2013-03-18 16:22:00,33.0,6.0,-100.00,West,273,2.0,6.0,32,-99.99,,,0.01,469.000000,,2013-03-19 00:22:00,
2013-03-18 16:32:00,33.0,6.0,-100.00,West,273,2.0,6.0,32,-99.99,,,0.01,469.000000,,2013-03-19 00:32:00,
2013-03-18 16:42:00,33.0,6.0,-100.00,West,273,2.0,6.0,32,-99.99,,,0.01,469.000000,,2013-03-19 00:42:00,
2013-03-18 16:52:00,33.0,6.0,-100.00,West,273,2.0,6.0,32,-99.99,,,0.01,469.000000,,2013-03-19 00:52:00,
2013-03-18 17:22:00,35.0,7.0,-100.00,West,263,2.0,8.0,31,0.00,,,0.01,216.000000,,2013-03-19 01:22:00,
2013-03-18 17:32:00,35.0,7.0,-100.00,West,263,2.0,8.0,31,0.00,,,0.01,216.000000,,2013-03-19 01:32:00,
2013-03-18 17:42:00,35.0,7.0,-100.00,West,263,2.0,8.0,31,0.00,,,0.01,216.000000,,2013-03-19 01:42:00,
2013-03-18 17:52:00,35.0,7.0,-100.00,West,263,2.0,8.0,31,0.00,,,0.01,216.000000,,2013-03-19 01:52:00,
2013-03-18 18:22:00,30.0,6.0,-100.00,West,271,2.0,7.0,35,0.00,,,0.01,130.000000,,2013-03-19 02:22:00,
2013-03-18 18:32:00,30.0,6.0,-100.00,West,271,2.0,7.0,35,0.00,,,0.01,130.000000,,2013-03-19 02:32:00,
2013-03-18 18:42:00,30.0,6.0,-100.00,West,271,2.0,7.0,35,0.00,,,0.01,130.000000,,2013-03-19 02:42:00,
2013-03-18 18:52:00,30.0,6.0,-100.00,West,271,2.0,7.0,35,0.00,,,0.01,130.000000,,2013-03-19 02:52:00,
2013-03-18 19:22:00,28.0,5.0,-100.00,WNW,291,2.0,7.0,36,0.00,,,0.01,45.000000,,2013-03-19 03:22:00,
2013-03-18 19:32:00,28.0,5.0,-100.00,WNW,291,2.0,7.0,36,0.00,,,0.01,45.000000,,2013-03-19 03:32:00,
2013-03-18 19:43:00,28.0,5.0,-100.00,WNW,291,2.0,7.0,36,0.00,,,0.01,45.000000,,2013-03-19 03:43:00,
2013-03-18 19:53:00,28.0,5.0,-100.00,WNW,291,2.0,7.0,36,0.00,,,0.01,45.000000,,2013-03-19 03:53:00,
2013-03-18 20:23:00,25.0,1.0,-100.00,West,280,1.0,6.0,35,0.00,,,0.01,22.000000,,2013-03-19 04:23:00,
2013-03-18 20:33:00,25.0,1.0,-100.00,West,280,1.0,6.0,35,0.00,,,0.01,22.000000,,2013-03-19 04:33:00,
2013-03-18 20:42:00,25.0,1.0,-100.00,West,280,1.0,6.0,35,0.00,,,0.01,22.000000,,2013-03-19 04:42:00,
2013-03-18 20:52:00,25.0,1.0,-100.00,West,280,1.0,6.0,35,0.00,,,0.01,22.000000,,2013-03-19 04:52:00,
2013-03-18 21:22:00,20.0,2.0,-100.00,NNE,22,1.0,4.0,45,0.00,,,0.01,2.000000,,2013-03-19 05:22:00,
2013-03-18 21:32:00,20.0,2.0,-100.00,NNE,22,1.0,4.0,45,0.00,,,0.01,2.000000,,2013-03-19 05:32:00,
2013-03-18 21:42:00,20.0,2.0,-100.00,NNE,22,1.0,4.0,45,0.00,,,0.01,2.000000,,2013-03-19 05:42:00,
2013-03-18 21:51:00,20.0,2.0,-100.00,NNE,22,1.0,4.0,45,0.00,,,0.01,2.000000,,2013-03-19 05:51:00,
2013-03-18 22:22:00,17.0,2.0,-100.00,ENE,74,1.0,4.0,52,0.00,,,0.01,0.000000,,2013-03-19 06:22:00,
2013-03-18 22:32:00,17.0,2.0,-100.00,ENE,74,1.0,4.0,52,0.00,,,0.01,0.000000,,2013-03-19 06:32:00,
2013-03-18 22:42:00,17.0,2.0,-100.00,ENE,74,1.0,4.0,52,0.00,,,0.01,0.000000,,2013-03-19 06:42:00,
2013-03-18 22:52:00,17.0,2.0,-100.00,ENE,74,1.0,4.0,52,0.00,,,0.01,0.000000,,2013-03-19 06:52:00,
2013-03-18 23:21:00,13.0,1.0,-100.00,North,10,0.0,3.0,59,0.00,,,0.01,0.000000,,2013-03-19 07:21:00,
2013-03-18 23:32:00,13.0,1.0,-100.00,North,10,0.0,3.0,59,0.00,,,0.01,0.000000,,2013-03-19 07:32:00,
2013-03-18 23:42:00,13.0,1.0,-100.00,North,10,0.0,3.0,59,0.00,,,0.01,0.000000,,2013-03-19 07:42:00,
2013-03-18 23:52:00,13.0,1.0,-100.00,North,10,0.0,3.0,59,0.00,,,0.01,0.000000,,2013-03-19 07:52:00,